Time;durP1;ratioP1;P1;durP2;ratioP2;P2;SDS_P1;SDS_P2;PMS_P1;PMS_P2;Temp;Humidity;BMP_temperature;BMP_pressure;BME280_temperature;BME280_humidity;BME280_pressure;Samples;Min_cycle;Max_cycle;Signal;HPM_P1;HPM_P2
2023/12/22 00:01:01;;;;;;;0.50;0.10;;;6.60;99.90;;;;;;5001430;28;20452;-78
2023/12/22 00:03:29;;;;;;;0.50;0.10;;;6.50;99.90;;;;;;5005654;28;20442;-80
2023/12/22 00:05:57;;;;;;;0.70;0.50;;;6.50;99.90;;;;;;5004482;28;20520;-78
2023/12/22 00:08:26;;;;;;;4.73;1.30;;;6.50;99.90;;;;;;5004047;28;20540;-78
2023/12/22 00:10:54;;;;;;;0.50;0.20;;;6.40;99.90;;;;;;5001474;28;20445;-78
2023/12/22 00:13:22;;;;;;;0.50;0.10;;;6.40;99.90;;;;;;4998652;28;20445;-78
2023/12/22 00:15:50;;;;;;;0.50;0.10;;;6.40;99.90;;;;;;5000952;28;20451;-78
2023/12/22 00:18:18;;;;;;;0.50;0.10;;;;;;;;;;5001252;28;20489;-78
2023/12/22 00:20:46;;;;;;;0.50;0.10;;;6.40;99.90;;;;;;5000864;28;20466;-78
2023/12/22 00:23:14;;;;;;;0.50;0.10;;;6.50;99.90;;;;;;4996940;28;20485;-79
2023/12/22 00:25:43;;;;;;;0.50;0.10;;;6.50;99.90;;;;;;4999215;28;20456;-78
2023/12/22 00:28:11;;;;;;;0.50;0.30;;;6.60;99.90;;;;;;5000555;28;20852;-78
2023/12/22 00:30:39;;;;;;;0.50;0.10;;;6.60;99.90;;;;;;5000250;28;20861;-79
2023/12/22 00:33:07;;;;;;;0.50;0.10;;;6.60;99.90;;;;;;4995165;28;20484;-79
2023/12/22 00:35:36;;;;;;;0.50;0.10;;;6.70;99.90;;;;;;5004752;28;20445;-79
2023/12/22 00:38:04;;;;;;;0.50;0.10;;;6.70;99.90;;;;;;5001639;28;20543;-78
2023/12/22 00:40:32;;;;;;;0.50;0.10;;;6.70;99.90;;;;;;4993912;28;20941;-79
2023/12/22 00:43:01;;;;;;;4.30;0.40;;;6.50;99.90;;;;;;4994490;28;20445;-78
2023/12/22 00:45:29;;;;;;;0.50;0.10;;;6.40;99.90;;;;;;4997047;28;20498;-78
2023/12/22 00:47:57;;;;;;;0.50;0.20;;;6.50;99.90;;;;;;4996360;28;20855;-78
2023/12/22 00:50:25;;;;;;;0.50;0.10;;;6.50;99.90;;;;;;4987581;28;20515;-79
2023/12/22 00:52:52;;;;;;;0.50;0.10;;;6.60;99.90;;;;;;4996404;28;20455;-78
2023/12/22 00:55:20;;;;;;;0.50;0.10;;;6.60;99.90;;;;;;4997032;28;20479;-79
2023/12/22 00:57:48;;;;;;;0.50;0.10;;;6.70;99.90;;;;;;4996365;28;20856;-79
2023/12/22 01:00:19;;;;;;;0.50;0.10;;;6.60;99.90;;;;;;4995472;28;20453;-79
2023/12/22 01:02:47;;;;;;;0.50;0.10;;;;;;;;;;4994947;28;20445;-78
2023/12/22 01:05:16;;;;;;;1.00;0.73;;;;;;;;;;4993589;28;20917;-78
2023/12/22 01:07:44;;;;;;;0.50;0.10;;;6.60;99.90;;;;;;4995093;28;20558;-78
2023/12/22 01:10:11;;;;;;;0.50;0.10;;;6.60;99.90;;;;;;5001676;28;20460;-77
2023/12/22 01:12:39;;;;;;;0.50;0.10;;;6.60;99.90;;;;;;5002016;28;20496;-77
2023/12/22 01:15:08;;;;;;;0.50;0.30;;;6.60;99.90;;;;;;4996245;28;20456;-77
2023/12/22 01:17:37;;;;;;;0.50;0.10;;;6.50;99.90;;;;;;4994807;28;20963;-78
2023/12/22 01:20:06;;;;;;;0.50;0.10;;;6.60;99.90;;;;;;4994170;28;20536;-78
2023/12/22 01:22:38;;;;;;;0.50;0.10;;;6.70;99.90;;;;;;4994351;28;20824;-78
2023/12/22 01:25:06;;;;;;;0.50;0.10;;;6.70;99.90;;;;;;4994499;28;20940;-78
2023/12/22 01:27:34;;;;;;;0.50;0.10;;;6.80;99.90;;;;;;4995167;28;20567;-79
2023/12/22 01:30:01;;;;;;;0.50;0.10;;;6.70;99.90;;;;;;4994541;28;20995;-78
2023/12/22 01:32:34;;;;;;;0.50;0.20;;;6.50;99.90;;;;;;4993864;28;20545;-79
2023/12/22 01:35:09;;;;;;;0.50;0.10;;;6.40;99.90;;;;;;4993804;28;20503;-78
2023/12/22 01:37:37;;;;;;;0.50;0.10;;;6.40;99.90;;;;;;4993358;28;20461;-78
2023/12/22 01:40:06;;;;;;;0.50;0.10;;;6.30;99.90;;;;;;4993701;28;20476;-78
2023/12/22 01:42:34;;;;;;;0.73;0.40;;;6.30;99.90;;;;;;4994093;28;20487;-78
2023/12/22 01:45:02;;;;;;;0.50;0.10;;;6.30;99.90;;;;;;4998246;28;20441;-77
2023/12/22 01:47:30;;;;;;;0.50;0.10;;;6.40;99.90;;;;;;4999256;28;21070;-78
2023/12/22 01:49:58;;;;;;;0.50;0.10;;;6.40;99.90;;;;;;4999474;28;20475;-78
2023/12/22 01:52:28;;;;;;;0.50;0.10;;;6.40;99.90;;;;;;4999883;28;20790;-79
2023/12/22 01:54:56;;;;;;;0.50;0.10;;;6.40;99.90;;;;;;5001570;28;20440;-79
2023/12/22 01:57:24;;;;;;;0.50;0.10;;;6.50;99.90;;;;;;5001060;28;20471;-79
2023/12/22 01:59:52;;;;;;;0.50;0.10;;;;;;;;;;4999342;28;20443;-79
2023/12/22 02:02:20;;;;;;;0.50;0.10;;;;;;;;;;4998808;28;20444;-77
2023/12/22 02:04:48;;;;;;;0.50;0.10;;;6.30;99.90;;;;;;4997150;28;20540;-77
2023/12/22 02:07:16;;;;;;;0.50;0.10;;;6.20;99.90;;;;;;4997218;28;20464;-77
2023/12/22 02:09:45;;;;;;;0.50;0.10;;;6.10;99.90;;;;;;4996199;28;20451;-77
2023/12/22 02:12:13;;;;;;;0.50;0.10;;;6.20;99.90;;;;;;4996867;28;20456;-78
2023/12/22 02:14:41;;;;;;;0.50;0.10;;;6.20;99.90;;;;;;4997663;28;20453;-79
2023/12/22 02:17:22;;;;;;;0.50;0.10;;;6.10;99.90;;;;;;4997947;28;20496;-77
2023/12/22 02:19:49;;;;;;;0.50;0.10;;;6.10;99.90;;;;;;4996042;28;20954;-77
2023/12/22 02:22:17;;;;;;;0.50;0.10;;;6.10;99.90;;;;;;4996464;28;20884;-77
2023/12/22 02:24:47;;;;;;;0.50;0.10;;;6.00;99.90;;;;;;4995931;28;20822;-77
2023/12/22 02:27:23;;;;;;;0.50;0.10;;;6.00;99.90;;;;;;4995917;28;20471;-77
2023/12/22 02:29:57;;;;;;;0.50;0.10;;;5.90;99.90;;;;;;4996663;28;20437;-78
2023/12/22 02:32:30;;;;;;;0.50;0.10;;;5.90;99.90;;;;;;4997104;28;20448;-78
2023/12/22 02:34:59;;;;;;;0.50;0.10;;;5.80;99.90;;;;;;4996642;28;20438;-78
2023/12/22 02:37:29;;;;;;;0.50;0.23;;;5.60;99.90;;;;;;4996836;28;20889;-78
2023/12/22 02:39:59;;;;;;;0.50;0.20;;;5.40;99.90;;;;;;4988123;28;20441;-78
2023/12/22 02:42:30;;;;;;;0.50;0.10;;;5.40;99.90;;;;;;4996090;28;20491;-78
2023/12/22 02:44:58;;;;;;;0.50;0.10;;;5.50;99.90;;;;;;4988771;28;20536;-78
2023/12/22 02:47:27;;;;;;;0.50;0.10;;;5.50;99.90;;;;;;4989160;28;20968;-79
2023/12/22 02:49:55;;;;;;;0.50;0.10;;;5.50;99.90;;;;;;4996295;28;20437;-77
2023/12/22 02:52:23;;;;;;;0.87;0.20;;;5.60;99.90;;;;;;4997047;28;20468;-79
2023/12/22 02:54:51;;;;;;;0.50;0.10;;;5.50;99.90;;;;;;4998869;28;20492;-79
2023/12/22 02:57:20;;;;;;;0.50;0.10;;;5.60;99.90;;;;;;5012704;28;20452;-78
2023/12/22 02:59:48;;;;;;;0.50;0.10;;;5.60;99.90;;;;;;5013412;28;20548;-80
2023/12/22 03:02:16;;;;;;;0.50;0.10;;;5.60;99.90;;;;;;5011010;28;20468;-79
2023/12/22 03:04:46;;;;;;;0.50;0.10;;;;;;;;;;5015887;28;20467;-79
2023/12/22 03:07:14;;;;;;;0.50;0.10;;;5.50;99.90;;;;;;5015883;28;20464;-79
2023/12/22 03:09:42;;;;;;;0.50;0.10;;;5.60;99.90;;;;;;5012116;28;20476;-80
2023/12/22 03:12:11;;;;;;;0.50;0.10;;;5.60;99.90;;;;;;5004328;28;20488;-80
2023/12/22 03:14:40;;;;;;;0.50;0.10;;;5.60;99.90;;;;;;5003325;28;20459;-80
2023/12/22 03:17:09;;;;;;;0.50;0.10;;;5.60;99.90;;;;;;5003652;28;20473;-80
2023/12/22 03:19:37;;;;;;;0.50;0.10;;;5.70;99.90;;;;;;5003149;28;20441;-78
2023/12/22 03:22:05;;;;;;;0.50;0.10;;;;;;;;;;5004230;28;20480;-79
2023/12/22 03:24:33;;;;;;;0.50;0.10;;;5.80;99.90;;;;;;5003480;28;20476;-78
2023/12/22 03:27:01;;;;;;;0.50;0.10;;;5.90;99.90;;;;;;5005190;28;20468;-78
2023/12/22 03:29:30;;;;;;;0.50;0.10;;;;;;;;;;5003322;28;20540;-80
2023/12/22 03:31:59;;;;;;;0.50;0.10;;;5.90;99.90;;;;;;5000622;28;20451;-78
2023/12/22 03:34:27;;;;;;;0.50;0.10;;;5.90;99.90;;;;;;5001655;28;20445;-79
2023/12/22 03:36:55;;;;;;;0.50;0.10;;;6.00;99.90;;;;;;5001634;28;20464;-79
2023/12/22 03:39:23;;;;;;;0.50;0.10;;;5.90;99.90;;;;;;5000643;28;20516;-80
2023/12/22 03:41:50;;;;;;;0.50;0.10;;;6.00;99.90;;;;;;5000890;28;20504;-80
2023/12/22 03:44:18;;;;;;;0.50;0.20;;;6.00;99.90;;;;;;5002439;28;20504;-80
2023/12/22 03:46:49;;;;;;;0.50;0.10;;;6.00;99.90;;;;;;5001820;28;20923;-80
2023/12/22 03:49:19;;;;;;;0.60;0.43;;;6.00;99.90;;;;;;5002044;28;20485;-79
2023/12/22 03:51:47;;;;;;;1.10;0.80;;;5.90;99.90;;;;;;5002989;28;20452;-78
2023/12/22 03:54:15;;;;;;;0.50;0.10;;;6.00;99.90;;;;;;5003498;28;20512;-79
2023/12/22 03:56:44;;;;;;;0.50;0.10;;;5.90;99.90;;;;;;5002109;28;21098;-80
2023/12/22 03:59:13;;;;;;;0.50;0.10;;;6.00;99.90;;;;;;5003789;28;20441;-80
2023/12/22 04:01:41;;;;;;;0.50;0.20;;;6.00;99.90;;;;;;5001595;28;20441;-79
2023/12/22 04:04:09;;;;;;;0.50;0.20;;;6.00;99.90;;;;;;5001900;28;20457;-80
2023/12/22 04:06:40;;;;;;;0.50;0.20;;;6.10;99.90;;;;;;5004919;28;20496;-79
2023/12/22 04:09:08;;;;;;;0.50;0.10;;;6.10;99.90;;;;;;5014847;28;20468;-81
2023/12/22 04:11:36;;;;;;;0.50;0.10;;;6.10;99.90;;;;;;5015073;28;20472;-77
2023/12/22 04:14:07;;;;;;;0.50;0.10;;;6.20;99.90;;;;;;5015190;28;20460;-77
2023/12/22 04:16:37;;;;;;;0.70;0.30;;;6.20;99.90;;;;;;5014672;28;20465;-79
2023/12/22 04:19:05;;;;;;;0.50;0.10;;;6.20;99.90;;;;;;5015431;28;20461;-77
2023/12/22 04:21:39;;;;;;;0.50;0.10;;;6.20;99.90;;;;;;5010648;28;20515;-80
2023/12/22 04:24:07;;;;;;;0.50;0.10;;;6.20;99.90;;;;;;5002655;28;20465;-79
2023/12/22 04:26:35;;;;;;;0.50;0.10;;;6.40;99.90;;;;;;5002626;28;21014;-80
2023/12/22 04:29:03;;;;;;;0.50;0.10;;;6.40;99.90;;;;;;4994678;28;20534;-80
2023/12/22 04:31:31;;;;;;;0.50;0.10;;;6.50;99.90;;;;;;5001014;28;20492;-80
2023/12/22 04:33:59;;;;;;;0.50;0.10;;;6.50;99.90;;;;;;5000373;28;20445;-80
2023/12/22 04:36:27;;;;;;;0.50;0.10;;;;;;;;;;5001245;28;20472;-78
2023/12/22 04:38:56;;;;;;;0.50;0.10;;;6.60;99.90;;;;;;5001230;28;20528;-78
2023/12/22 04:41:24;;;;;;;0.50;0.10;;;6.60;99.90;;;;;;5001353;28;20445;-80
2023/12/22 04:43:52;;;;;;;0.50;0.20;;;6.70;99.90;;;;;;5000729;28;20472;-78
2023/12/22 04:46:20;;;;;;;4.40;2.07;;;;;;;;;;5001954;28;20484;-79
2023/12/22 04:48:48;;;;;;;0.50;0.10;;;6.80;99.90;;;;;;5000875;28;20503;-79
2023/12/22 04:51:16;;;;;;;0.90;0.53;;;6.90;99.90;;;;;;5001230;28;20512;-79
2023/12/22 04:53:44;;;;;;;0.50;0.10;;;7.00;99.90;;;;;;5000641;28;20452;-80
2023/12/22 04:56:15;;;;;;;0.60;0.20;;;7.00;99.90;;;;;;5001852;28;20457;-81
2023/12/22 04:58:42;;;;;;;0.50;0.10;;;7.10;99.90;;;;;;5002044;28;20453;-80
2023/12/22 05:01:10;;;;;;;0.50;0.10;;;7.10;99.90;;;;;;5002691;28;20460;-79
2023/12/22 05:03:38;;;;;;;0.80;0.50;;;7.10;99.90;;;;;;5000387;28;20493;-79
2023/12/22 05:06:07;;;;;;;0.50;0.10;;;7.20;99.90;;;;;;5000031;28;20937;-80
2023/12/22 05:08:35;;;;;;;0.80;0.30;;;7.20;99.90;;;;;;5000107;28;20444;-80
2023/12/22 05:11:03;;;;;;;0.50;0.10;;;7.20;99.90;;;;;;4998981;28;20548;-80
2023/12/22 05:13:32;;;;;;;0.50;0.10;;;7.20;99.90;;;;;;4999637;28;20455;-80
2023/12/22 05:16:01;;;;;;;0.50;0.10;;;7.30;99.90;;;;;;5000606;28;20464;-80
2023/12/22 05:18:29;;;;;;;0.50;0.10;;;7.30;99.90;;;;;;5001768;28;20492;-80
2023/12/22 05:20:57;;;;;;;0.50;0.20;;;7.30;99.90;;;;;;5004567;28;20449;-80
2023/12/22 05:23:25;;;;;;;0.50;0.10;;;7.20;99.90;;;;;;5004303;28;20874;-80
2023/12/22 05:25:53;;;;;;;0.50;0.10;;;7.20;99.90;;;;;;5004147;28;20994;-80
2023/12/22 05:28:21;;;;;;;0.70;0.60;;;7.20;99.90;;;;;;5004928;28;20465;-80
2023/12/22 05:30:51;;;;;;;0.50;0.10;;;7.20;99.90;;;;;;5003817;28;20488;-80
2023/12/22 05:33:19;;;;;;;0.50;0.10;;;7.20;99.90;;;;;;5002353;28;20445;-80
2023/12/22 05:35:47;;;;;;;0.50;0.10;;;7.20;99.90;;;;;;5003518;28;20504;-79
2023/12/22 05:38:15;;;;;;;0.50;0.10;;;7.10;99.90;;;;;;5003881;28;20959;-79
2023/12/22 05:40:43;;;;;;;0.50;0.10;;;7.10;99.90;;;;;;5003283;28;20516;-80
2023/12/22 05:43:11;;;;;;;0.50;0.10;;;7.00;99.90;;;;;;5003191;28;20553;-80
2023/12/22 05:45:39;;;;;;;0.50;0.10;;;7.10;99.90;;;;;;5004475;28;20444;-79
2023/12/22 05:48:09;;;;;;;1.27;0.50;;;7.10;99.90;;;;;;5003616;28;20982;-78
2023/12/22 05:50:37;;;;;;;0.50;0.10;;;7.00;99.90;;;;;;5002922;28;20485;-79
2023/12/22 05:53:05;;;;;;;0.50;0.10;;;7.00;99.90;;;;;;5004083;28;21007;-79
2023/12/22 05:55:33;;;;;;;0.60;0.37;;;5.80;99.90;;;;;;5003796;28;20536;-80
2023/12/22 05:58:01;;;;;;;0.50;0.10;;;7.00;99.90;;;;;;5004514;28;20950;-79
2023/12/22 06:00:29;;;;;;;0.50;0.20;;;;;;;;;;5004999;28;20510;-78
2023/12/22 06:02:57;;;;;;;0.60;0.30;;;7.00;99.90;;;;;;5005816;28;20519;-79
2023/12/22 06:05:26;;;;;;;0.50;0.17;;;7.00;99.90;;;;;;5005444;28;20453;-79
2023/12/22 06:07:54;;;;;;;0.50;0.20;;;7.10;99.90;;;;;;5003773;28;21247;-81
2023/12/22 06:10:23;;;;;;;0.60;0.30;;;;;;;;;;5001045;28;20492;-79
2023/12/22 06:12:50;;;;;;;4.00;0.83;;;7.10;99.90;;;;;;5003435;28;20539;-78
2023/12/22 06:15:19;;;;;;;3.70;1.43;;;7.20;99.90;;;;;;5001093;28;20628;-79
2023/12/22 06:17:47;;;;;;;0.50;0.13;;;7.30;99.90;;;;;;5004662;28;20507;-79
2023/12/22 06:20:15;;;;;;;0.50;0.20;;;;;;;;;;5004953;28;20436;-78
2023/12/22 06:22:44;;;;;;;10.43;3.40;;;7.40;99.90;;;;;;5006436;28;20446;-78
2023/12/22 06:25:12;;;;;;;0.50;0.10;;;7.50;99.90;;;;;;5004431;28;20441;-80
2023/12/22 06:27:40;;;;;;;0.50;0.20;;;7.50;99.90;;;;;;5003888;28;20519;-81
2023/12/22 06:30:09;;;;;;;0.60;0.53;;;7.60;99.90;;;;;;4997644;28;20536;-80
2023/12/22 06:32:39;;;;;;;0.50;0.20;;;7.60;99.90;;;;;;5008472;28;20452;-78
2023/12/22 06:35:10;;;;;;;0.50;0.20;;;7.70;99.90;;;;;;5008775;28;20438;-81
2023/12/22 06:37:44;;;;;;;12.30;1.03;;;;;;;;;;5007741;28;20701;-80
2023/12/22 06:40:13;;;;;;;0.50;0.17;;;;;;;;;;5012239;28;20511;-80
2023/12/22 06:42:41;;;;;;;0.50;0.10;;;7.80;99.90;;;;;;5010468;28;20457;-80
2023/12/22 06:45:10;;;;;;;0.60;0.20;;;7.90;99.90;;;;;;5008761;28;20445;-80
2023/12/22 06:47:38;;;;;;;0.50;0.10;;;7.90;99.90;;;;;;5007226;28;20485;-78
2023/12/22 06:50:07;;;;;;;0.50;0.10;;;7.90;99.90;;;;;;5005403;28;20485;-82
2023/12/22 06:52:35;;;;;;;0.50;0.10;;;7.90;99.90;;;;;;5004589;28;20473;-80
2023/12/22 06:55:06;;;;;;;0.50;0.10;;;;;;;;;;5009312;28;20452;-79
2023/12/22 06:57:34;;;;;;;0.50;0.10;;;7.90;99.90;;;;;;5007621;28;20485;-78
2023/12/22 07:00:04;;;;;;;0.50;0.10;;;;;;;;;;5004802;28;20460;-81
2023/12/22 07:02:32;;;;;;;0.50;0.10;;;8.00;99.90;;;;;;4999795;28;20819;-79
2023/12/22 07:05:07;;;;;;;0.50;0.20;;;8.00;99.90;;;;;;4996772;28;20476;-77
2023/12/22 07:07:35;;;;;;;0.70;0.57;;;8.00;99.90;;;;;;5005329;28;20987;-79
2023/12/22 07:10:06;;;;;;;0.50;0.10;;;8.00;99.90;;;;;;4995882;28;20906;-79
2023/12/22 07:12:34;;;;;;;3.00;0.73;;;8.00;99.90;;;;;;5003164;28;20534;-79
2023/12/22 07:15:02;;;;;;;0.50;0.10;;;8.00;99.90;;;;;;5007391;28;20560;-77
2023/12/22 07:17:30;;;;;;;5.07;1.00;;;;;;;;;;5014855;28;20480;-75
2023/12/22 07:19:58;;;;;;;0.50;0.10;;;8.10;99.90;;;;;;5016204;28;20446;-75
2023/12/22 07:22:26;;;;;;;0.50;0.10;;;8.10;99.90;;;;;;5016162;28;20469;-76
2023/12/22 07:24:55;;;;;;;0.50;0.10;;;8.30;99.90;;;;;;5016591;28;20484;-77
2023/12/22 07:27:25;;;;;;;0.50;0.20;;;8.30;99.90;;;;;;5014255;28;20496;-76
2023/12/22 07:29:55;;;;;;;2.80;0.20;;;4.70;99.90;;;;;;5014592;28;20422;-79
2023/12/22 07:32:23;;;;;;;1.10;0.50;;;8.30;99.90;;;;;;5014874;28;20508;-77
2023/12/22 07:34:51;;;;;;;0.50;0.10;;;;;;;;;;5014634;28;20456;-78
2023/12/22 07:37:19;;;;;;;0.50;0.10;;;8.40;99.90;;;;;;5006317;28;20483;-80
2023/12/22 07:39:48;;;;;;;0.50;0.10;;;;;;;;;;5007052;28;20454;-79
2023/12/22 07:42:16;;;;;;;0.50;0.20;;;;;;;;;;5001447;28;20480;-78
2023/12/22 07:44:46;;;;;;;0.80;0.30;;;10.10;99.90;;;;;;5015174;28;20464;-79
2023/12/22 07:47:13;;;;;;;0.50;0.10;;;8.40;99.90;;;;;;5007179;28;20564;-77
2023/12/22 07:49:42;;;;;;;0.50;0.17;;;8.40;99.90;;;;;;5015421;28;20421;-78
2023/12/22 07:52:10;;;;;;;0.80;0.30;;;;;;;;;;5015616;28;20486;-78
2023/12/22 07:54:38;;;;;;;0.93;0.30;;;8.40;99.90;;;;;;5015325;28;20473;-77
2023/12/22 07:57:10;;;;;;;0.50;0.10;;;8.40;99.90;;;;;;5012954;28;20505;-79
2023/12/22 07:59:37;;;;;;;0.60;0.50;;;8.40;99.90;;;;;;5013230;28;20458;-77
2023/12/22 08:02:07;;;;;;;0.50;0.33;;;8.50;99.90;;;;;;5010106;28;20446;-79
2023/12/22 08:04:35;;;;;;;1.90;1.23;;;;;;;;;;5004791;28;20845;-79
2023/12/22 08:07:03;;;;;;;0.50;0.20;;;8.40;99.90;;;;;;5002607;28;20459;-80
2023/12/22 08:09:32;;;;;;;0.50;0.10;;;8.40;99.90;;;;;;5004295;28;20444;-80
2023/12/22 08:12:01;;;;;;;0.50;0.20;;;;;;;;;;5003060;28;20935;-77
2023/12/22 08:14:30;;;;;;;1.20;1.03;;;;;;;;;;5007553;28;20602;-81
2023/12/22 08:16:58;;;;;;;0.83;0.40;;;8.40;99.90;;;;;;5007585;28;20894;-81
2023/12/22 08:19:27;;;;;;;0.50;0.10;;;;;;;;;;5005576;28;20452;-81
2023/12/22 08:21:59;;;;;;;0.50;0.10;;;8.40;99.90;;;;;;5002475;28;20442;-81
2023/12/22 08:24:31;;;;;;;0.50;0.10;;;8.40;99.90;;;;;;5002964;28;20452;-79
2023/12/22 08:26:59;;;;;;;3.80;0.83;;;8.50;99.90;;;;;;5003140;28;20468;-80
2023/12/22 08:29:28;;;;;;;0.50;0.20;;;;;;;;;;4999997;28;20537;-79
2023/12/22 08:31:56;;;;;;;0.50;0.20;;;8.40;99.90;;;;;;5002789;28;20485;-82
2023/12/22 08:34:24;;;;;;;2.03;0.67;;;8.40;99.90;;;;;;5003551;28;20453;-80
2023/12/22 08:36:53;;;;;;;2.83;0.80;;;8.40;99.90;;;;;;4999920;28;20485;-81
2023/12/22 08:39:24;;;;;;;1.47;0.33;;;;;;;;;;5003587;28;20456;-80
2023/12/22 08:41:53;;;;;;;2.40;0.90;;;8.30;99.90;;;;;;5002348;28;20476;-80
2023/12/22 08:44:21;;;;;;;0.83;0.50;;;;;;;;;;5003731;28;20996;-81
2023/12/22 08:46:49;;;;;;;0.50;0.10;;;8.10;99.90;;;;;;4996306;28;20549;-81
2023/12/22 08:49:18;;;;;;;1.10;0.50;;;8.10;99.90;;;;;;4998618;28;20633;-80
2023/12/22 08:51:46;;;;;;;0.50;0.20;;;8.10;99.90;;;;;;5003939;28;20604;-78
2023/12/22 08:54:16;;;;;;;0.50;0.10;;;;;;;;;;5003316;28;20455;-80
2023/12/22 08:56:44;;;;;;;0.50;0.20;;;8.10;99.90;;;;;;4997205;28;20549;-81
2023/12/22 08:59:12;;;;;;;0.60;0.40;;;8.10;99.90;;;;;;5002535;28;20455;-80
2023/12/22 09:01:42;;;;;;;0.50;0.20;;;;;;;;;;5004008;28;20474;-80
2023/12/22 09:04:11;;;;;;;0.50;0.10;;;8.00;99.90;;;;;;5001414;28;20463;-80
2023/12/22 09:06:40;;;;;;;0.50;0.10;;;8.00;99.90;;;;;;5002714;28;21780;-77
2023/12/22 09:09:09;;;;;;;0.50;0.10;;;8.00;99.90;;;;;;5010115;28;20442;-79
2023/12/22 09:11:38;;;;;;;0.50;0.10;;;8.00;99.90;;;;;;5012976;28;20485;-77
2023/12/22 09:14:09;;;;;;;1.10;0.97;;;8.00;99.90;;;;;;5012602;28;20444;-80
2023/12/22 09:16:38;;;;;;;0.60;0.20;;;8.00;99.90;;;;;;5008104;28;20496;-81
2023/12/22 09:19:07;;;;;;;0.50;0.20;;;7.90;99.90;;;;;;5007564;28;20512;-79
2023/12/22 09:21:35;;;;;;;0.60;0.57;;;7.80;99.90;;;;;;5010616;28;20520;-79
2023/12/22 09:24:04;;;;;;;0.50;0.30;;;7.70;99.90;;;;;;5011394;28;20447;-77
2023/12/22 09:26:32;;;;;;;0.90;0.20;;;7.60;99.90;;;;;;5013291;28;20483;-77
2023/12/22 09:29:02;;;;;;;0.50;0.10;;;;;;;;;;5009226;28;20473;-80
2023/12/22 09:31:32;;;;;;;0.50;0.20;;;;;;;;;;5005673;28;20487;-80
2023/12/22 09:34:01;;;;;;;0.60;0.30;;;7.50;99.90;;;;;;5005079;28;20446;-77
2023/12/22 09:36:29;;;;;;;0.70;0.20;;;7.50;99.90;;;;;;5012523;28;20471;-78
2023/12/22 09:38:57;;;;;;;0.60;0.20;;;7.50;99.90;;;;;;5003603;28;20438;-78
2023/12/22 09:41:25;;;;;;;0.50;0.10;;;7.60;99.90;;;;;;5010672;28;20441;-79
2023/12/22 09:43:58;;;;;;;0.87;0.30;;;7.60;99.90;;;;;;5009252;28;20481;-80
2023/12/22 09:46:27;;;;;;;0.50;0.20;;;7.60;99.90;;;;;;5009834;28;20436;-82
2023/12/22 09:48:56;;;;;;;0.50;0.20;;;;;;;;;;5005968;28;20497;-80
2023/12/22 09:51:25;;;;;;;0.50;0.13;;;;;;;;;;5004840;28;20467;-77
2023/12/22 09:53:54;;;;;;;0.50;0.27;;;7.60;99.90;;;;;;5009391;28;20451;-80
2023/12/22 09:56:25;;;;;;;0.50;0.10;;;7.50;99.90;;;;;;5009044;28;20871;-79
2023/12/22 09:58:54;;;;;;;0.50;0.10;;;7.60;99.90;;;;;;5006515;28;20454;-78
2023/12/22 10:01:23;;;;;;;0.60;0.30;;;7.60;99.90;;;;;;5004617;28;21011;-80
2023/12/22 10:03:53;;;;;;;0.50;0.20;;;7.60;99.90;;;;;;5002082;28;20460;-77
2023/12/22 10:06:21;;;;;;;0.63;0.50;;;7.50;99.90;;;;;;5016846;28;20457;-79
2023/12/22 10:08:51;;;;;;;0.50;0.10;;;7.50;99.90;;;;;;5018819;28;20444;-77
2023/12/22 10:11:21;;;;;;;0.50;0.13;;;7.60;99.90;;;;;;5012637;28;20473;-78
2023/12/22 10:13:52;;;;;;;0.50;0.10;;;7.70;99.90;;;;;;5017255;28;20485;-78
2023/12/22 10:16:20;;;;;;;0.50;0.20;;;7.80;99.90;;;;;;5015506;28;20528;-78
2023/12/22 10:18:49;;;;;;;0.60;0.33;;;7.80;99.90;;;;;;5011360;28;20434;-79
2023/12/22 10:21:18;;;;;;;0.80;0.47;;;7.80;99.90;;;;;;5014369;28;20445;-77
2023/12/22 10:23:46;;;;;;;0.50;0.10;;;7.90;99.90;;;;;;5017671;28;20488;-78
2023/12/22 10:26:16;;;;;;;0.73;0.40;;;7.90;99.90;;;;;;5017671;28;20501;-77
2023/12/22 10:28:44;;;;;;;2.60;0.40;;;;;;;;;;5018663;28;20443;-76
2023/12/22 10:31:12;;;;;;;0.60;0.20;;;7.90;99.90;;;;;;5015006;28;20533;-79
2023/12/22 10:33:41;;;;;;;0.50;0.20;;;;;;;;;;5016195;28;20477;-80
2023/12/22 10:36:09;;;;;;;0.50;0.20;;;;;;;;;;5015733;28;20495;-79
2023/12/22 10:38:39;;;;;;;0.50;0.20;;;;;;;;;;5013617;28;20478;-79
2023/12/22 10:41:08;;;;;;;0.60;0.40;;;;;;;;;;5010103;28;20447;-81
2023/12/22 10:43:40;;;;;;;0.50;0.10;;;7.90;99.90;;;;;;5008423;28;20450;-82
2023/12/22 10:46:10;;;;;;;0.50;0.20;;;8.00;99.90;;;;;;5009043;28;20449;-79
2023/12/22 10:48:38;;;;;;;17.13;0.63;;;8.00;99.90;;;;;;5008415;28;20437;-79
2023/12/22 10:51:10;;;;;;;4.30;0.50;;;8.00;99.90;;;;;;5006151;28;20472;-80
2023/12/22 10:53:43;;;;;;;0.50;0.10;;;8.00;99.90;;;;;;5000823;28;20477;-80
2023/12/22 10:56:12;;;;;;;0.57;0.23;;;8.00;99.90;;;;;;4998219;28;20523;-81
2023/12/22 10:58:40;;;;;;;1.43;0.50;;;8.00;99.90;;;;;;5003536;28;20454;-79
2023/12/22 11:01:12;;;;;;;0.50;0.10;;;8.10;99.90;;;;;;5004592;28;20453;-81
2023/12/22 11:03:42;;;;;;;0.50;0.10;;;8.10;99.90;;;;;;5005443;28;21039;-77
2023/12/22 11:06:13;;;;;;;2.93;2.10;;;8.10;99.90;;;;;;5002193;28;20500;-78
2023/12/22 11:08:44;;;;;;;0.50;0.10;;;8.20;99.90;;;;;;5009232;28;20445;-81
2023/12/22 11:11:17;;;;;;;0.50;0.10;;;8.20;99.90;;;;;;5010720;28;20892;-80
2023/12/22 11:13:46;;;;;;;0.50;0.10;;;8.30;99.90;;;;;;5013342;28;20477;-79
2023/12/22 11:16:16;;;;;;;0.70;0.20;;;8.30;99.90;;;;;;5013498;28;20455;-80
2023/12/22 11:18:44;;;;;;;0.50;0.10;;;8.30;99.90;;;;;;5007942;28;20441;-79
2023/12/22 11:21:13;;;;;;;0.50;0.10;;;;;;;;;;5006854;28;20472;-80
2023/12/22 11:23:43;;;;;;;1.30;0.80;;;;;;;;;;5006500;28;20476;-81
2023/12/22 11:26:13;;;;;;;0.73;0.23;;;8.40;99.90;;;;;;5008474;28;20477;-79
2023/12/22 11:28:44;;;;;;;0.50;0.30;;;8.50;99.90;;;;;;5007890;28;20475;-79
2023/12/22 11:31:12;;;;;;;3.40;2.30;;;8.50;99.90;;;;;;5002716;28;20463;-81
2023/12/22 11:33:44;;;;;;;2.67;1.23;;;8.50;99.90;;;;;;5007504;28;20519;-81
2023/12/22 11:36:31;;;;;;;2.40;1.03;;;8.60;99.90;;;;;;4999249;28;20484;-82
2023/12/22 11:39:01;;;;;;;0.90;0.33;;;;;;;;;;5007572;28;20448;-80
2023/12/22 11:41:33;;;;;;;2.80;1.03;;;8.60;99.90;;;;;;5000891;28;20441;-81
2023/12/22 11:44:03;;;;;;;3.40;0.67;;;8.70;99.90;;;;;;5001257;28;20466;-79
2023/12/22 11:46:33;;;;;;;1.13;0.80;;;8.70;99.90;;;;;;5007875;28;20456;-79
2023/12/22 11:49:02;;;;;;;1.43;1.03;;;8.80;99.90;;;;;;5006880;28;20499;-80
2023/12/22 11:51:34;;;;;;;0.50;0.20;;;8.90;99.90;;;;;;5010731;28;20510;-80
2023/12/22 11:54:04;;;;;;;0.80;0.77;;;8.90;99.90;;;;;;5011107;28;20474;-81
2023/12/22 11:56:31;;;;;;;2.83;1.47;;;8.90;99.90;;;;;;5006479;28;20488;-79
2023/12/22 11:59:02;;;;;;;0.63;0.30;;;8.90;99.90;;;;;;5005955;28;20451;-79
2023/12/22 12:01:31;;;;;;;0.50;0.20;;;8.90;99.90;;;;;;5008087;28;20447;-81
2023/12/22 12:04:05;;;;;;;27.40;1.83;;;8.90;99.90;;;;;;5002237;28;20457;-79
2023/12/22 12:06:36;;;;;;;0.60;0.30;;;9.00;99.90;;;;;;4996637;28;20467;-79
2023/12/22 12:09:09;;;;;;;1.67;0.97;;;9.00;99.90;;;;;;5003152;28;20587;-81
2023/12/22 12:12:12;;;;;;;0.70;0.60;;;8.90;99.90;;;;;;5008124;28;20512;-81
2023/12/22 12:14:45;;;;;;;0.50;0.17;;;8.90;99.90;;;;;;5001116;28;20577;-80
2023/12/22 12:17:18;;;;;;;7.80;1.40;;;8.90;99.90;;;;;;5005370;28;20477;-80
2023/12/22 12:19:46;;;;;;;0.63;0.50;;;;;;;;;;5004037;28;20449;-79
2023/12/22 12:22:14;;;;;;;1.03;0.60;;;8.90;99.90;;;;;;5005099;28;20445;-79
2023/12/22 12:24:45;;;;;;;1.30;0.50;;;8.80;99.90;;;;;;5003703;28;20478;-81
2023/12/22 12:27:18;;;;;;;0.93;0.73;;;8.80;99.90;;;;;;5006207;28;20469;-79
2023/12/22 12:29:46;;;;;;;1.70;0.20;;;8.80;99.90;;;;;;5001733;28;20467;-78
2023/12/22 12:32:15;;;;;;;0.60;0.50;;;8.80;99.90;;;;;;5003056;28;20513;-80
2023/12/22 12:34:43;;;;;;;0.50;0.20;;;8.90;99.90;;;;;;5003553;28;20487;-81
2023/12/22 12:37:12;;;;;;;0.60;0.30;;;8.90;99.90;;;;;;5002442;28;20486;-80
2023/12/22 12:39:41;;;;;;;0.50;0.20;;;8.90;99.90;;;;;;5003602;28;20449;-81
2023/12/22 12:42:15;;;;;;;0.57;0.30;;;8.90;99.90;;;;;;5003264;28;20470;-81
2023/12/22 12:44:45;;;;;;;3.60;1.60;;;8.90;99.90;;;;;;5002970;28;20445;-80
2023/12/22 12:47:13;;;;;;;0.60;0.30;;;8.80;99.90;;;;;;5001883;28;20456;-83
2023/12/22 12:49:42;;;;;;;3.47;0.60;;;8.90;99.90;;;;;;4998739;28;20450;-80
2023/12/22 12:52:13;;;;;;;0.60;0.30;;;;;;;;;;5002196;28;20469;-82
2023/12/22 12:54:43;;;;;;;0.50;0.10;;;8.90;99.90;;;;;;5000669;28;20579;-78
2023/12/22 12:57:16;;;;;;;0.80;0.50;;;9.00;99.90;;;;;;4993860;28;20484;-81
2023/12/22 12:59:47;;;;;;;3.90;1.90;;;10.70;99.90;;;;;;5005418;28;20479;-79
2023/12/22 13:02:15;;;;;;;0.60;0.30;;;8.90;99.90;;;;;;5004829;28;20516;-79
2023/12/22 13:04:44;;;;;;;1.70;0.60;;;9.00;99.90;;;;;;4999363;28;20456;-81
2023/12/22 13:07:13;;;;;;;2.97;0.50;;;9.00;99.90;;;;;;4995009;28;20481;-81
2023/12/22 13:09:42;;;;;;;0.50;0.20;;;9.00;99.90;;;;;;4998233;28;20999;-80
2023/12/22 13:12:10;;;;;;;0.80;0.50;;;9.00;99.90;;;;;;4999524;28;20560;-79
2023/12/22 13:14:40;;;;;;;0.50;0.20;;;9.00;99.90;;;;;;4998637;28;20506;-78
2023/12/22 13:17:09;;;;;;;2.03;0.33;;;9.00;99.90;;;;;;4999159;28;21037;-80
2023/12/22 13:19:39;;;;;;;0.80;0.30;;;;;;;;;;5004613;28;20465;-76